createdAt,value
2023-04-23T00:02:19.269Z,21.67
2023-04-23T00:04:53.107Z,21.66
2023-04-23T00:07:24.112Z,21.64
2023-04-23T00:09:56.068Z,21.65
2023-04-23T00:12:23.357Z,21.64
2023-04-23T00:14:50.646Z,21.65
2023-04-23T00:17:17.466Z,21.63
2023-04-23T00:19:44.264Z,21.62
2023-04-23T00:22:11.028Z,21.62
2023-04-23T00:24:38.933Z,21.62
2023-04-23T00:27:06.277Z,21.60
2023-04-23T00:29:33.479Z,21.58
2023-04-23T00:32:00.352Z,21.58
2023-04-23T00:34:27.237Z,21.56
2023-04-23T00:36:54.053Z,21.54
2023-04-23T00:39:22.672Z,21.53
2023-04-23T00:41:49.856Z,21.52
2023-04-23T00:44:16.751Z,21.52
2023-04-23T00:46:44.009Z,21.50
2023-04-23T00:49:11.391Z,21.49
2023-04-23T00:51:38.161Z,21.49
2023-04-23T00:54:05.047Z,21.48
2023-04-23T00:56:32.126Z,21.46
2023-04-23T00:58:59.031Z,21.46
2023-04-23T01:01:25.986Z,21.44
2023-04-23T01:03:54.186Z,21.43
2023-04-23T01:06:21.514Z,21.44
2023-04-23T01:08:48.316Z,21.41
2023-04-23T01:11:15.797Z,21.41
2023-04-23T01:13:43.401Z,21.38
2023-04-23T01:16:11.433Z,21.37
2023-04-23T01:18:40.828Z,21.35
2023-04-23T01:21:09.869Z,21.35
2023-04-23T01:23:36.636Z,21.33
2023-04-23T01:26:03.578Z,21.32
2023-04-23T01:28:30.669Z,21.30
2023-04-23T01:30:59.164Z,21.27
2023-04-23T01:33:26.699Z,21.26
2023-04-23T01:35:55.082Z,21.26
2023-04-23T01:38:23.616Z,21.24
2023-04-23T01:40:50.388Z,21.22
2023-04-23T01:43:17.808Z,21.20
2023-04-23T01:45:44.703Z,21.17
2023-04-23T01:48:11.511Z,21.11
2023-04-23T01:50:38.985Z,20.99
2023-04-23T01:53:05.976Z,20.82
2023-04-23T01:55:36.765Z,20.68
2023-04-23T01:58:03.732Z,20.53
2023-04-23T02:00:30.907Z,20.44
2023-04-23T02:02:57.767Z,20.34
2023-04-23T02:05:28.768Z,20.23
2023-04-23T02:07:56.120Z,20.13
2023-04-23T02:10:22.916Z,20.04
2023-04-23T02:12:49.669Z,19.96
2023-04-23T02:15:16.540Z,19.88
2023-04-23T02:17:43.648Z,19.82
2023-04-23T02:20:11.993Z,19.76
2023-04-23T02:22:41.200Z,19.70
2023-04-23T02:25:08.915Z,19.64
2023-04-23T02:27:35.972Z,19.60
2023-04-23T02:30:08.382Z,19.55
2023-04-23T02:32:37.154Z,19.49
2023-04-23T02:35:06.353Z,19.43
2023-04-23T02:37:33.581Z,19.40
2023-04-23T02:40:00.341Z,19.37
2023-04-23T02:42:27.185Z,19.32
2023-04-23T02:44:54.005Z,19.30
2023-04-23T02:47:20.785Z,19.28
2023-04-23T02:49:47.532Z,19.27
2023-04-23T02:52:14.344Z,19.27
2023-04-23T02:54:41.214Z,19.26
2023-04-23T02:57:08.449Z,19.23
2023-04-23T02:59:35.544Z,19.20
2023-04-23T03:02:02.389Z,19.17
2023-04-23T03:04:29.217Z,19.17
2023-04-23T03:06:56.539Z,19.17
2023-04-23T03:09:23.327Z,19.18
2023-04-23T03:11:50.097Z,19.16
2023-04-23T03:14:16.905Z,19.14
2023-04-23T03:16:43.695Z,19.05
2023-04-23T03:19:10.705Z,19.03
2023-04-23T03:21:37.492Z,18.99
2023-04-23T03:24:04.393Z,18.96
2023-04-23T03:26:31.307Z,18.91
2023-04-23T03:28:58.102Z,18.88
2023-04-23T03:31:24.945Z,18.87
2023-04-23T03:33:51.834Z,18.83
2023-04-23T03:36:18.612Z,18.79
2023-04-23T03:38:45.354Z,18.76
2023-04-23T03:41:12.152Z,18.74
2023-04-23T03:43:38.951Z,18.73
2023-04-23T03:46:06.490Z,18.69
2023-04-23T03:48:33.346Z,18.68
2023-04-23T03:51:00.197Z,18.65
2023-04-23T03:53:27.061Z,18.65
2023-04-23T03:55:53.831Z,18.64
2023-04-23T03:58:20.695Z,18.63
2023-04-23T04:00:47.476Z,18.61
2023-04-23T04:03:14.423Z,18.61
2023-04-23T04:05:41.551Z,18.60
2023-04-23T04:08:08.689Z,18.60
2023-04-23T04:10:35.564Z,18.60
2023-04-23T04:13:02.398Z,18.60
2023-04-23T04:15:29.209Z,18.59
2023-04-23T04:17:56.052Z,18.60
2023-04-23T04:20:22.955Z,18.61
2023-04-23T04:22:49.859Z,18.60
2023-04-23T04:25:16.603Z,18.57
2023-04-23T04:27:43.722Z,18.54
2023-04-23T04:30:10.962Z,18.52
2023-04-23T04:32:38.751Z,18.46
2023-04-23T04:35:09.189Z,18.42
2023-04-23T04:37:36.296Z,18.36
2023-04-23T04:40:03.696Z,18.32
2023-04-23T04:42:30.988Z,18.29
2023-04-23T04:44:59.488Z,18.25
2023-04-23T04:47:26.449Z,18.20
2023-04-23T04:49:57.006Z,18.15
2023-04-23T04:52:24.601Z,18.12
2023-04-23T04:54:51.448Z,18.06
2023-04-23T04:57:19.943Z,18.03
2023-04-23T04:59:46.799Z,18.01
2023-04-23T05:02:14.088Z,17.97
2023-04-23T05:04:41.206Z,17.94
2023-04-23T05:07:08.318Z,17.90
2023-04-23T05:09:35.172Z,17.87
2023-04-23T05:12:02.060Z,17.85
2023-04-23T05:14:28.941Z,17.80
2023-04-23T05:16:55.958Z,17.77
2023-04-23T05:19:23.581Z,17.74
2023-04-23T05:21:50.469Z,17.72
2023-04-23T05:24:17.294Z,17.69
2023-04-23T05:26:44.182Z,17.67
2023-04-23T05:29:12.953Z,17.66
2023-04-23T05:31:39.806Z,17.64
2023-04-23T05:34:06.622Z,17.61
2023-04-23T05:36:33.466Z,17.58
2023-04-23T05:39:00.571Z,17.58
2023-04-23T05:41:27.501Z,17.57
2023-04-23T05:43:54.253Z,17.54
2023-04-23T05:46:21.071Z,17.51
2023-04-23T05:48:47.874Z,17.52
2023-04-23T05:51:14.631Z,17.53
2023-04-23T05:53:41.440Z,17.49
2023-04-23T05:56:08.218Z,17.45
2023-04-23T05:58:35.160Z,17.41
2023-04-23T06:01:02.951Z,17.41
2023-04-23T06:03:30.365Z,17.39
2023-04-23T06:05:57.351Z,17.39
2023-04-23T06:08:25.336Z,17.39
2023-04-23T06:10:52.249Z,17.39
2023-04-23T06:13:19.029Z,17.38
2023-04-23T06:15:45.898Z,17.38
2023-04-23T06:18:13.102Z,17.40
2023-04-23T06:20:39.956Z,17.46
2023-04-23T06:23:06.749Z,17.47
2023-04-23T06:25:33.516Z,17.46
2023-04-23T06:28:00.322Z,17.46
2023-04-23T06:30:27.242Z,17.47
2023-04-23T06:32:54.097Z,17.46
2023-04-23T06:35:20.917Z,17.48
2023-04-23T06:37:47.767Z,17.48
2023-04-23T06:40:15.078Z,17.49
2023-04-23T06:42:41.818Z,17.46
2023-04-23T06:45:09.189Z,17.49
2023-04-23T06:47:36.008Z,17.50
2023-04-23T06:50:02.884Z,17.56
2023-04-23T06:52:29.768Z,17.61
2023-04-23T06:54:56.513Z,17.64
2023-04-23T06:57:23.290Z,17.65
2023-04-23T06:59:50.204Z,17.66
2023-04-23T07:02:17.088Z,17.68
2023-04-23T07:04:44.539Z,17.71
2023-04-23T07:07:12.011Z,17.75
2023-04-23T07:09:38.792Z,17.79
2023-04-23T07:12:06.486Z,17.82
2023-04-23T07:14:33.412Z,17.83
2023-04-23T07:17:00.513Z,17.88
2023-04-23T07:19:27.405Z,17.94
2023-04-23T07:21:54.234Z,17.99
2023-04-23T07:24:21.037Z,18.06
2023-04-23T07:26:47.854Z,18.14
2023-04-23T07:29:15.353Z,18.20
2023-04-23T07:31:42.233Z,18.23
2023-04-23T07:34:09.822Z,18.25
2023-04-23T07:36:37.203Z,18.29
2023-04-23T07:39:05.274Z,18.33
2023-04-23T07:41:32.829Z,18.42
2023-04-23T07:43:59.685Z,18.49
2023-04-23T07:46:26.490Z,18.58
2023-04-23T07:48:53.478Z,18.65
2023-04-23T07:51:22.327Z,18.73
2023-04-23T07:53:51.132Z,18.89
2023-04-23T07:56:17.939Z,19.03
2023-04-23T07:58:44.729Z,19.20
2023-04-23T08:01:11.530Z,19.33
2023-04-23T08:03:38.457Z,19.49
2023-04-23T08:06:05.610Z,19.66
2023-04-23T08:08:32.407Z,19.80
2023-04-23T08:10:59.309Z,20.02
2023-04-23T08:13:26.108Z,20.29
2023-04-23T08:15:52.954Z,20.61
2023-04-23T08:18:19.757Z,20.94
2023-04-23T08:20:46.555Z,21.22
2023-04-23T08:23:13.396Z,21.48
2023-04-23T08:25:40.359Z,21.75
2023-04-23T08:28:08.374Z,21.93
2023-04-23T08:30:35.184Z,22.02
2023-04-23T08:33:02.236Z,22.05
2023-04-23T08:35:29.094Z,22.01
2023-04-23T08:37:56.197Z,21.90
2023-04-23T08:40:23.084Z,21.81
2023-04-23T08:43:03.170Z,21.72
2023-04-23T08:45:30.899Z,21.64
2023-04-23T08:48:02.189Z,21.59
2023-04-23T08:50:30.983Z,21.57
2023-04-23T08:52:58.887Z,21.54
2023-04-23T08:55:26.144Z,21.55
2023-04-23T08:57:53.190Z,21.57
2023-04-23T09:00:23.077Z,21.59
2023-04-23T09:02:50.613Z,21.59
2023-04-23T09:05:17.864Z,21.61
2023-04-23T09:07:44.968Z,21.65
2023-04-23T09:10:18.256Z,21.72
2023-04-23T09:12:46.702Z,21.75
2023-04-23T09:15:13.662Z,21.78
2023-04-23T09:17:43.901Z,21.83
2023-04-23T09:20:12.699Z,21.90
2023-04-23T09:22:55.203Z,21.99
2023-04-23T09:25:23.889Z,22.05
2023-04-23T09:27:52.729Z,22.11
2023-04-23T09:30:20.174Z,22.15
2023-04-23T09:32:47.597Z,22.19
2023-04-23T09:35:16.608Z,22.25
2023-04-23T09:37:49.509Z,22.30
2023-04-23T09:40:19.906Z,22.34
2023-04-23T09:42:55.747Z,22.40
2023-04-23T09:45:25.033Z,22.41
2023-04-23T09:47:57.881Z,22.46
2023-04-23T09:50:37.037Z,22.51
2023-04-23T09:53:05.526Z,22.56
2023-04-23T09:55:38.870Z,22.61
2023-04-23T09:58:11.482Z,22.65
2023-04-23T10:00:40.012Z,22.71
2023-04-23T10:03:09.489Z,22.76
2023-04-23T10:08:13.794Z,22.86
2023-04-23T10:10:56.790Z,22.93
2023-04-23T10:13:28.459Z,22.99
2023-04-23T10:15:59.094Z,23.03
2023-04-23T10:18:33.642Z,23.08
2023-04-23T10:21:03.264Z,23.15
2023-04-23T10:23:30.914Z,23.23
2023-04-23T10:25:59.503Z,23.29
2023-04-23T10:28:31.874Z,23.35
2023-04-23T10:30:59.781Z,23.41
2023-04-23T10:33:31.907Z,23.44
2023-04-23T10:36:00.894Z,23.49
2023-04-23T10:38:28.350Z,23.58
2023-04-23T10:40:58.723Z,23.66
2023-04-23T10:43:25.708Z,23.71
2023-04-23T10:45:53.741Z,23.76
2023-04-23T10:48:21.434Z,23.79
2023-04-23T10:51:14.624Z,23.83
2023-04-23T10:53:46.461Z,23.88
2023-04-23T10:56:13.443Z,23.92
2023-04-23T10:58:51.261Z,24.02
2023-04-23T11:01:18.969Z,24.08
2023-04-23T11:03:47.650Z,24.16
2023-04-23T11:06:48.677Z,24.27
2023-04-23T11:09:42.572Z,24.34
2023-04-23T11:12:34.864Z,24.41
2023-04-23T11:15:12.710Z,24.51
2023-04-23T11:17:39.393Z,24.64
2023-04-23T11:20:14.330Z,24.73
2023-04-23T11:22:45.860Z,24.77
2023-04-23T11:25:24.763Z,24.86
2023-04-23T11:27:53.944Z,24.94
2023-04-23T11:30:26.390Z,25.06
2023-04-23T11:32:55.340Z,25.17
2023-04-23T11:35:28.417Z,25.31
2023-04-23T11:37:56.340Z,25.43
2023-04-23T11:40:24.294Z,25.50
2023-04-23T11:42:54.786Z,25.51
2023-04-23T11:45:27.968Z,25.46
2023-04-23T11:47:57.152Z,25.39
2023-04-23T11:50:33.543Z,25.27
2023-04-23T11:53:10.374Z,25.15
2023-04-23T11:55:38.284Z,25.01
2023-04-23T11:58:05.728Z,24.88
2023-04-23T12:00:32.521Z,24.79
2023-04-23T12:03:02.362Z,24.71
2023-04-23T12:05:40.130Z,24.70
2023-04-23T12:08:18.929Z,24.73
2023-04-23T12:10:51.070Z,24.78
2023-04-23T12:13:22.253Z,24.93
2023-04-23T12:15:57.773Z,25.08
2023-04-23T12:18:29.129Z,25.16
2023-04-23T12:21:09.523Z,25.27
2023-04-23T12:23:38.237Z,25.37
2023-04-23T12:26:11.377Z,25.47
2023-04-23T12:28:55.808Z,25.60
2023-04-23T12:31:23.837Z,25.59
2023-04-23T12:34:04.718Z,25.58
2023-04-23T12:36:32.242Z,25.51
2023-04-23T12:39:24.923Z,25.48
2023-04-23T12:42:13.010Z,25.47
2023-04-23T12:44:40.249Z,25.51
2023-04-23T12:47:09.564Z,25.54
2023-04-23T12:49:39.159Z,25.53
2023-04-23T12:52:07.555Z,25.48
2023-04-23T12:54:37.370Z,25.47
2023-04-23T12:57:06.856Z,25.49
2023-04-23T12:59:34.127Z,25.47
2023-04-23T13:02:02.286Z,25.46
2023-04-23T13:04:32.880Z,25.45
2023-04-23T13:06:59.687Z,25.43
2023-04-23T13:09:28.278Z,25.39
2023-04-23T13:11:55.753Z,25.35
2023-04-23T13:14:22.584Z,25.30
2023-04-23T13:16:50.056Z,25.27
2023-04-23T13:19:17.207Z,25.22
2023-04-23T13:21:45.059Z,25.16
2023-04-23T13:24:11.989Z,25.09
2023-04-23T13:26:38.936Z,25.02
2023-04-23T13:29:06.062Z,24.93
2023-04-23T13:31:34.107Z,24.89
2023-04-23T13:34:03.604Z,24.89
2023-04-23T13:36:30.650Z,24.91
2023-04-23T13:38:57.493Z,24.94
2023-04-23T13:41:24.313Z,24.98
2023-04-23T13:43:51.176Z,24.99
2023-04-23T13:46:19.555Z,24.99
2023-04-23T13:48:46.398Z,24.99
2023-04-23T13:51:26.455Z,24.98
2023-04-23T13:54:00.089Z,24.92
2023-04-23T13:56:27.560Z,24.87
2023-04-23T13:59:02.262Z,24.81
2023-04-23T14:01:31.992Z,24.73
2023-04-23T14:03:58.919Z,24.64
2023-04-23T14:06:25.753Z,24.56
2023-04-23T14:08:52.578Z,24.44
2023-04-23T14:11:19.374Z,24.33
2023-04-23T14:13:46.112Z,24.27
2023-04-23T14:16:13.201Z,24.21
2023-04-23T14:18:39.976Z,24.17
2023-04-23T14:21:07.897Z,24.15
2023-04-23T14:23:49.292Z,24.12
2023-04-23T14:26:47.813Z,24.04
2023-04-23T14:29:49.063Z,23.93
2023-04-23T14:32:16.008Z,23.83
2023-04-23T14:34:44.402Z,23.75
2023-04-23T14:37:11.298Z,23.66
2023-04-23T14:39:38.123Z,23.53
2023-04-23T14:42:05.175Z,23.44
2023-04-23T14:44:31.970Z,23.34
2023-04-23T14:46:59.094Z,23.21
2023-04-23T14:49:25.953Z,23.07
2023-04-23T14:51:57.951Z,22.94
2023-04-23T14:54:24.898Z,22.83
2023-04-23T14:56:52.133Z,22.75
2023-04-23T14:59:19.219Z,22.67
2023-04-23T15:01:46.105Z,22.62
2023-04-23T15:04:16.193Z,22.62
2023-04-23T15:06:43.001Z,22.63
2023-04-23T15:09:09.805Z,22.65
2023-04-23T15:11:38.602Z,22.65
2023-04-23T15:14:19.630Z,22.66
2023-04-23T15:16:49.307Z,22.67
2023-04-23T15:19:18.825Z,22.74
2023-04-23T15:21:46.618Z,22.82
2023-04-23T15:24:13.704Z,22.97
2023-04-23T15:26:40.888Z,23.10
2023-04-23T15:29:10.558Z,23.28
2023-04-23T15:31:38.450Z,23.42
2023-04-23T15:34:08.164Z,23.55
2023-04-23T15:36:38.107Z,23.62
2023-04-23T15:39:06.575Z,23.67
2023-04-23T15:41:36.632Z,23.70
2023-04-23T15:44:04.685Z,23.71
2023-04-23T15:46:31.505Z,23.72
2023-04-23T15:48:58.295Z,23.75
2023-04-23T15:51:25.153Z,23.77
2023-04-23T15:53:51.911Z,23.78
2023-04-23T15:56:18.648Z,23.79
2023-04-23T15:58:45.439Z,23.78
2023-04-23T16:01:12.339Z,23.78
2023-04-23T16:03:39.298Z,23.75
2023-04-23T16:06:06.488Z,23.73
2023-04-23T16:08:33.342Z,23.69
2023-04-23T16:11:00.257Z,23.63
2023-04-23T16:13:29.078Z,23.58
2023-04-23T16:15:56.099Z,23.50
2023-04-23T16:18:22.962Z,23.47
2023-04-23T16:20:49.728Z,23.44
2023-04-23T16:23:16.487Z,23.41
2023-04-23T16:25:44.081Z,23.38
2023-04-23T16:28:13.154Z,23.38
2023-04-23T16:30:40.125Z,23.36
2023-04-23T16:33:06.975Z,23.32
2023-04-23T16:35:33.872Z,23.31
2023-04-23T16:38:00.722Z,23.29
2023-04-23T16:40:28.658Z,23.27
2023-04-23T16:42:55.621Z,23.26
2023-04-23T16:45:23.174Z,23.26
2023-04-23T16:47:50.808Z,23.24
2023-04-23T16:50:17.659Z,23.21
2023-04-23T16:52:44.532Z,23.18
2023-04-23T16:55:11.382Z,23.16
2023-04-23T16:57:38.356Z,23.15
2023-04-23T17:00:06.130Z,23.11
2023-04-23T17:02:34.328Z,23.08
2023-04-23T17:05:01.944Z,23.07
2023-04-23T17:07:29.056Z,23.03
2023-04-23T17:09:55.921Z,22.99
2023-04-23T17:12:22.788Z,22.94
2023-04-23T17:14:49.641Z,22.89
2023-04-23T17:17:16.584Z,22.86
2023-04-23T17:19:43.467Z,22.81
2023-04-23T17:22:10.666Z,22.77
2023-04-23T17:24:39.088Z,22.72
2023-04-23T17:27:06.290Z,22.66
2023-04-23T17:29:33.099Z,22.61
2023-04-23T17:32:01.042Z,22.56
2023-04-23T17:34:27.962Z,22.50
2023-04-23T17:36:54.794Z,22.44
2023-04-23T17:39:23.555Z,22.39
2023-04-23T17:41:50.394Z,22.36
2023-04-23T17:44:17.226Z,22.31
2023-04-23T17:46:44.026Z,22.28
2023-04-23T17:49:10.824Z,22.24
2023-04-23T17:51:37.845Z,22.18
2023-04-23T17:54:05.252Z,22.14
2023-04-23T17:56:32.165Z,22.10
2023-04-23T17:58:58.920Z,22.07
2023-04-23T18:01:25.901Z,22.03
2023-04-23T18:03:53.405Z,22.01
2023-04-23T18:06:20.504Z,21.97
2023-04-23T18:08:47.306Z,21.93
2023-04-23T18:11:14.121Z,21.90
2023-04-23T18:13:40.966Z,21.86
2023-04-23T18:16:07.715Z,21.83
2023-04-23T18:18:34.520Z,21.79
2023-04-23T18:21:01.937Z,21.76
2023-04-23T18:23:29.295Z,21.71
2023-04-23T18:25:56.563Z,21.67
2023-04-23T18:28:23.338Z,21.63
2023-04-23T18:30:50.130Z,21.59
2023-04-23T18:33:36.618Z,21.53
2023-04-23T18:36:29.201Z,21.48
2023-04-23T18:38:56.426Z,21.42
2023-04-23T18:41:23.532Z,21.37
2023-04-23T18:43:50.392Z,21.33
2023-04-23T18:46:17.635Z,21.27
2023-04-23T18:49:06.460Z,21.22
2023-04-23T18:51:44.792Z,21.17
2023-04-23T18:54:15.006Z,21.11
2023-04-23T18:56:42.012Z,21.05
2023-04-23T18:59:08.783Z,21.01
2023-04-23T19:01:36.105Z,20.96
2023-04-23T19:04:03.414Z,20.91
2023-04-23T19:06:31.135Z,20.85
2023-04-23T19:08:58.397Z,20.83
2023-04-23T19:11:27.029Z,20.79
2023-04-23T19:13:53.811Z,20.74
2023-04-23T19:16:20.733Z,20.72
2023-04-23T19:18:47.838Z,20.68
2023-04-23T19:21:14.689Z,20.65
2023-04-23T19:23:41.469Z,20.62
2023-04-23T19:26:08.252Z,20.60
2023-04-23T19:28:35.144Z,20.58
2023-04-23T19:31:03.423Z,20.55
2023-04-23T19:33:30.259Z,20.54
2023-04-23T19:35:57.054Z,20.53
2023-04-23T19:38:23.841Z,20.52
2023-04-23T19:40:51.157Z,20.52
2023-04-23T19:43:18.842Z,20.52
2023-04-23T19:45:46.498Z,20.49
2023-04-23T19:48:13.272Z,20.50
2023-04-23T19:50:40.440Z,20.49
2023-04-23T19:53:07.212Z,20.48
2023-04-23T19:55:34.059Z,20.47
2023-04-23T19:58:01.164Z,20.46
2023-04-23T20:00:30.578Z,20.48
2023-04-23T20:02:58.067Z,20.47
2023-04-23T20:05:25.603Z,20.48
2023-04-23T20:07:52.534Z,20.47
2023-04-23T20:10:19.679Z,20.47
2023-04-23T20:12:46.510Z,20.46
2023-04-23T20:15:13.659Z,20.47
2023-04-23T20:17:40.798Z,20.45
2023-04-23T20:20:09.349Z,20.46
2023-04-23T20:22:36.094Z,20.46
2023-04-23T20:25:03.414Z,20.46
2023-04-23T20:27:31.016Z,20.46
2023-04-23T20:29:57.837Z,20.46
2023-04-23T20:32:24.674Z,20.47
2023-04-23T20:34:52.542Z,20.48
2023-04-23T20:37:22.001Z,20.47
2023-04-23T20:39:49.709Z,20.47
2023-04-23T20:42:16.547Z,20.47
2023-04-23T20:44:45.451Z,20.46
2023-04-23T20:47:13.107Z,20.45
2023-04-23T20:49:40.371Z,20.45
2023-04-23T20:52:07.531Z,20.45
2023-04-23T20:54:34.846Z,20.46
2023-04-23T20:57:02.876Z,20.46
2023-04-23T20:59:29.936Z,20.46
2023-04-23T21:01:58.787Z,20.45
2023-04-23T21:04:28.253Z,20.44
2023-04-23T21:06:55.188Z,20.44
2023-04-23T21:09:22.082Z,20.42
2023-04-23T21:11:48.982Z,20.42
2023-04-23T21:14:15.828Z,20.42
2023-04-23T21:16:42.582Z,20.41
2023-04-23T21:19:09.373Z,20.41
2023-04-23T21:21:36.272Z,20.41
2023-04-23T21:24:03.136Z,20.42
2023-04-23T21:26:31.219Z,20.42
2023-04-23T21:28:58.247Z,20.42
2023-04-23T21:31:39.842Z,20.42
2023-04-23T21:34:06.708Z,20.41
2023-04-23T21:36:33.474Z,20.40
2023-04-23T21:39:00.293Z,20.36
2023-04-23T21:41:27.086Z,20.30
2023-04-23T21:43:53.906Z,20.27
2023-04-23T21:46:23.211Z,20.23
2023-04-23T21:48:53.300Z,20.21
2023-04-23T21:51:22.297Z,20.18
2023-04-23T21:53:49.535Z,20.17
2023-04-23T21:56:16.843Z,20.15
2023-04-23T21:58:44.662Z,20.13
2023-04-23T22:01:11.507Z,20.10
2023-04-23T22:03:42.319Z,20.07
2023-04-23T22:06:09.784Z,20.02
2023-04-23T22:08:40.301Z,19.98
2023-04-23T22:11:10.931Z,19.93
2023-04-23T22:13:39.151Z,19.87
2023-04-23T22:16:13.363Z,19.83
2023-04-23T22:18:47.682Z,19.78
2023-04-23T22:21:14.560Z,19.72
2023-04-23T22:23:41.331Z,19.67
2023-04-23T22:26:08.112Z,19.65
2023-04-23T22:28:34.863Z,19.61
2023-04-23T22:31:01.668Z,19.60
2023-04-23T22:33:29.292Z,19.57
2023-04-23T22:35:56.541Z,19.57
2023-04-23T22:38:23.338Z,19.54
2023-04-23T22:40:50.108Z,19.53
2023-04-23T22:43:16.878Z,19.50
2023-04-23T22:45:43.680Z,19.48
2023-04-23T22:48:10.651Z,19.48
2023-04-23T22:50:39.913Z,19.48
2023-04-23T22:53:06.820Z,19.48
2023-04-23T22:55:33.863Z,19.47
2023-04-23T22:58:00.843Z,19.45
2023-04-23T23:00:27.905Z,19.43
2023-04-23T23:02:54.778Z,19.41
2023-04-23T23:05:21.674Z,19.39
2023-04-23T23:07:48.416Z,19.35
2023-04-23T23:10:15.494Z,19.32
2023-04-23T23:12:42.246Z,19.28
2023-04-23T23:15:09.419Z,19.25
2023-04-23T23:17:36.259Z,19.22
2023-04-23T23:20:04.353Z,19.21
2023-04-23T23:22:31.136Z,19.17
2023-04-23T23:24:57.915Z,19.16
2023-04-23T23:27:24.689Z,19.13
2023-04-23T23:29:51.457Z,19.10
2023-04-23T23:32:18.372Z,19.08
2023-04-23T23:34:45.387Z,19.05
2023-04-23T23:37:12.137Z,19.02
2023-04-23T23:39:39.059Z,19.00
2023-04-23T23:42:05.906Z,18.96
2023-04-23T23:44:32.770Z,18.93
2023-04-23T23:47:00.321Z,18.90
2023-04-23T23:49:27.217Z,18.86
2023-04-23T23:51:54.038Z,18.84
2023-04-23T23:54:20.856Z,18.78
2023-04-23T23:56:47.727Z,18.77
2023-04-23T23:59:14.535Z,18.72
